sensor_id;sensor_type;location;lat;lon;timestamp;temperature;humidity
56374;DHT22;58212;47.034;7.376;2022-09-03T00:00:03;16.70;99.90
56374;DHT22;58212;47.034;7.376;2022-09-03T00:02:37;16.80;99.90
56374;DHT22;58212;47.034;7.376;2022-09-03T00:05:12;16.70;99.90
56374;DHT22;58212;47.034;7.376;2022-09-03T00:07:48;16.70;99.90
56374;DHT22;58212;47.034;7.376;2022-09-03T00:10:23;16.70;99.90
56374;DHT22;58212;47.034;7.376;2022-09-03T00:12:53;16.70;99.90
56374;DHT22;58212;47.034;7.376;2022-09-03T00:15:25;16.70;99.90
56374;DHT22;58212;47.034;7.376;2022-09-03T00:17:58;16.60;99.90
56374;DHT22;58212;47.034;7.376;2022-09-03T00:20:29;16.50;99.90
56374;DHT22;58212;47.034;7.376;2022-09-03T00:23:02;16.40;99.90
56374;DHT22;58212;47.034;7.376;2022-09-03T00:25:36;16.50;99.90
56374;DHT22;58212;47.034;7.376;2022-09-03T00:28:09;16.50;99.90
56374;DHT22;58212;47.034;7.376;2022-09-03T00:30:40;16.70;99.90
56374;DHT22;58212;47.034;7.376;2022-09-03T00:33:12;16.60;99.90
56374;DHT22;58212;47.034;7.376;2022-09-03T00:35:47;16.60;99.90
56374;DHT22;58212;47.034;7.376;2022-09-03T00:38:17;16.50;99.90
56374;DHT22;58212;47.034;7.376;2022-09-03T00:40:58;16.60;99.90
56374;DHT22;58212;47.034;7.376;2022-09-03T00:43:36;16.60;99.90
56374;DHT22;58212;47.034;7.376;2022-09-03T00:46:17;16.60;99.90
56374;DHT22;58212;47.034;7.376;2022-09-03T00:49:05;16.60;99.90
56374;DHT22;58212;47.034;7.376;2022-09-03T00:51:41;16.40;99.90
56374;DHT22;58212;47.034;7.376;2022-09-03T00:54:17;16.40;99.90
56374;DHT22;58212;47.034;7.376;2022-09-03T00:56:52;16.30;99.90
56374;DHT22;58212;47.034;7.376;2022-09-03T00:59:30;16.20;99.90
56374;DHT22;58212;47.034;7.376;2022-09-03T01:02:11;16.10;99.90
56374;DHT22;58212;47.034;7.376;2022-09-03T01:04:50;16.20;99.90
56374;DHT22;58212;47.034;7.376;2022-09-03T01:07:28;16.20;99.90
56374;DHT22;58212;47.034;7.376;2022-09-03T01:10:07;16.20;99.90
56374;DHT22;58212;47.034;7.376;2022-09-03T01:12:43;16.30;99.90
56374;DHT22;58212;47.034;7.376;2022-09-03T01:15:18;16.40;99.90
56374;DHT22;58212;47.034;7.376;2022-09-03T01:17:57;16.40;99.90
56374;DHT22;58212;47.034;7.376;2022-09-03T01:20:37;16.30;99.90
56374;DHT22;58212;47.034;7.376;2022-09-03T01:26:28;16.20;99.90
56374;DHT22;58212;47.034;7.376;2022-09-03T01:29:12;16.30;99.90
56374;DHT22;58212;47.034;7.376;2022-09-03T01:31:52;16.30;99.90
56374;DHT22;58212;47.034;7.376;2022-09-03T01:34:34;16.30;99.90
56374;DHT22;58212;47.034;7.376;2022-09-03T01:37:13;16.30;99.90
56374;DHT22;58212;47.034;7.376;2022-09-03T01:39:50;16.40;99.90
56374;DHT22;58212;47.034;7.376;2022-09-03T01:42:28;16.40;99.90
56374;DHT22;58212;47.034;7.376;2022-09-03T01:45:33;16.30;99.90
56374;DHT22;58212;47.034;7.376;2022-09-03T01:48:20;16.40;99.90
56374;DHT22;58212;47.034;7.376;2022-09-03T01:50:52;16.40;99.90
56374;DHT22;58212;47.034;7.376;2022-09-03T01:53:44;16.40;99.90
56374;DHT22;58212;47.034;7.376;2022-09-03T01:56:32;16.50;99.90
56374;DHT22;58212;47.034;7.376;2022-09-03T01:59:06;16.50;99.90
56374;DHT22;58212;47.034;7.376;2022-09-03T02:01:40;16.60;99.90
56374;DHT22;58212;47.034;7.376;2022-09-03T02:04:15;16.50;99.90
56374;DHT22;58212;47.034;7.376;2022-09-03T02:06:46;16.50;99.90
56374;DHT22;58212;47.034;7.376;2022-09-03T02:09:16;16.40;99.90
56374;DHT22;58212;47.034;7.376;2022-09-03T02:11:47;16.40;99.90
56374;DHT22;58212;47.034;7.376;2022-09-03T02:14:17;16.40;99.90
56374;DHT22;58212;47.034;7.376;2022-09-03T02:16:46;16.20;99.90
56374;DHT22;58212;47.034;7.376;2022-09-03T02:19:16;16.30;99.90
56374;DHT22;58212;47.034;7.376;2022-09-03T02:21:48;16.30;99.90
56374;DHT22;58212;47.034;7.376;2022-09-03T02:24:16;16.30;99.90
56374;DHT22;58212;47.034;7.376;2022-09-03T02:26:47;16.30;99.90
56374;DHT22;58212;47.034;7.376;2022-09-03T02:29:16;16.30;99.90
56374;DHT22;58212;47.034;7.376;2022-09-03T02:31:43;16.30;99.90
56374;DHT22;58212;47.034;7.376;2022-09-03T02:34:12;16.30;99.90
56374;DHT22;58212;47.034;7.376;2022-09-03T02:36:42;16.30;99.90
56374;DHT22;58212;47.034;7.376;2022-09-03T02:39:11;16.30;99.90
56374;DHT22;58212;47.034;7.376;2022-09-03T02:41:40;16.20;99.90
56374;DHT22;58212;47.034;7.376;2022-09-03T02:44:12;16.30;99.90
56374;DHT22;58212;47.034;7.376;2022-09-03T02:46:44;16.30;99.90
56374;DHT22;58212;47.034;7.376;2022-09-03T02:49:14;16.30;99.90
56374;DHT22;58212;47.034;7.376;2022-09-03T02:51:42;16.30;99.90
56374;DHT22;58212;47.034;7.376;2022-09-03T02:54:11;16.30;99.90
56374;DHT22;58212;47.034;7.376;2022-09-03T02:56:39;16.30;99.90
56374;DHT22;58212;47.034;7.376;2022-09-03T02:59:09;16.40;99.90
56374;DHT22;58212;47.034;7.376;2022-09-03T03:01:36;16.40;99.90
56374;DHT22;58212;47.034;7.376;2022-09-03T03:04:03;16.30;99.90
56374;DHT22;58212;47.034;7.376;2022-09-03T03:06:32;16.30;99.90
56374;DHT22;58212;47.034;7.376;2022-09-03T03:09:02;16.40;99.90
56374;DHT22;58212;47.034;7.376;2022-09-03T03:11:30;16.40;99.90
56374;DHT22;58212;47.034;7.376;2022-09-03T03:14:00;16.40;99.90
56374;DHT22;58212;47.034;7.376;2022-09-03T03:16:29;16.30;99.90
56374;DHT22;58212;47.034;7.376;2022-09-03T03:18:59;16.30;99.90
56374;DHT22;58212;47.034;7.376;2022-09-03T03:21:26;16.30;99.90
56374;DHT22;58212;47.034;7.376;2022-09-03T03:23:56;16.30;99.90
56374;DHT22;58212;47.034;7.376;2022-09-03T03:26:23;16.30;99.90
56374;DHT22;58212;47.034;7.376;2022-09-03T03:28:55;16.40;99.90
56374;DHT22;58212;47.034;7.376;2022-09-03T03:31:23;16.40;99.90
56374;DHT22;58212;47.034;7.376;2022-09-03T03:33:55;16.30;99.90
56374;DHT22;58212;47.034;7.376;2022-09-03T03:36:24;16.30;99.90
56374;DHT22;58212;47.034;7.376;2022-09-03T03:38:55;16.30;99.90
56374;DHT22;58212;47.034;7.376;2022-09-03T03:41:24;16.20;99.90
56374;DHT22;58212;47.034;7.376;2022-09-03T03:43:52;16.30;99.90
56374;DHT22;58212;47.034;7.376;2022-09-03T03:46:23;16.30;99.90
56374;DHT22;58212;47.034;7.376;2022-09-03T03:48:51;16.30;99.90
56374;DHT22;58212;47.034;7.376;2022-09-03T03:51:19;16.30;99.90
56374;DHT22;58212;47.034;7.376;2022-09-03T03:53:46;16.30;99.90
56374;DHT22;58212;47.034;7.376;2022-09-03T03:56:15;16.10;99.90
56374;DHT22;58212;47.034;7.376;2022-09-03T03:58:42;16.10;99.90
56374;DHT22;58212;47.034;7.376;2022-09-03T04:01:11;16.20;99.90
56374;DHT22;58212;47.034;7.376;2022-09-03T04:03:42;16.10;99.90
56374;DHT22;58212;47.034;7.376;2022-09-03T04:06:13;16.10;99.90
56374;DHT22;58212;47.034;7.376;2022-09-03T04:08:42;16.20;99.90
56374;DHT22;58212;47.034;7.376;2022-09-03T04:11:12;16.30;99.90
56374;DHT22;58212;47.034;7.376;2022-09-03T04:13:43;16.20;99.90
56374;DHT22;58212;47.034;7.376;2022-09-03T04:16:11;16.20;99.90
56374;DHT22;58212;47.034;7.376;2022-09-03T04:18:40;16.20;99.90
56374;DHT22;58212;47.034;7.376;2022-09-03T04:21:08;16.10;99.90
56374;DHT22;58212;47.034;7.376;2022-09-03T04:23:39;16.10;99.90
56374;DHT22;58212;47.034;7.376;2022-09-03T04:26:08;16.10;99.90
56374;DHT22;58212;47.034;7.376;2022-09-03T04:28:36;16.10;99.90
56374;DHT22;58212;47.034;7.376;2022-09-03T04:31:06;16.10;99.90
56374;DHT22;58212;47.034;7.376;2022-09-03T04:33:35;16.10;99.90
56374;DHT22;58212;47.034;7.376;2022-09-03T04:36:05;16.10;99.90
56374;DHT22;58212;47.034;7.376;2022-09-03T04:38:33;16.10;99.90
56374;DHT22;58212;47.034;7.376;2022-09-03T04:41:00;16.00;99.90
56374;DHT22;58212;47.034;7.376;2022-09-03T04:43:30;15.90;99.90
56374;DHT22;58212;47.034;7.376;2022-09-03T04:45:59;15.90;99.90
56374;DHT22;58212;47.034;7.376;2022-09-03T04:48:32;15.90;99.90
56374;DHT22;58212;47.034;7.376;2022-09-03T04:51:03;15.90;99.90
56374;DHT22;58212;47.034;7.376;2022-09-03T04:53:32;15.90;99.90
56374;DHT22;58212;47.034;7.376;2022-09-03T04:56:00;15.90;99.90
56374;DHT22;58212;47.034;7.376;2022-09-03T04:58:27;15.80;99.90
56374;DHT22;58212;47.034;7.376;2022-09-03T05:00:54;15.80;99.90
56374;DHT22;58212;47.034;7.376;2022-09-03T05:03:22;15.80;99.90
56374;DHT22;58212;47.034;7.376;2022-09-03T05:05:54;15.80;99.90
56374;DHT22;58212;47.034;7.376;2022-09-03T05:08:22;15.70;99.90
56374;DHT22;58212;47.034;7.376;2022-09-03T05:10:57;15.70;99.90
56374;DHT22;58212;47.034;7.376;2022-09-03T05:13:27;15.60;99.90
56374;DHT22;58212;47.034;7.376;2022-09-03T05:15:58;15.60;99.90
56374;DHT22;58212;47.034;7.376;2022-09-03T05:18:27;15.60;99.90
56374;DHT22;58212;47.034;7.376;2022-09-03T05:21:00;15.50;99.90
56374;DHT22;58212;47.034;7.376;2022-09-03T05:23:28;15.50;99.90
56374;DHT22;58212;47.034;7.376;2022-09-03T05:25:56;15.50;99.90
56374;DHT22;58212;47.034;7.376;2022-09-03T05:28:24;15.50;99.90
56374;DHT22;58212;47.034;7.376;2022-09-03T05:30:59;15.50;99.90
56374;DHT22;58212;47.034;7.376;2022-09-03T05:33:28;15.50;99.90
56374;DHT22;58212;47.034;7.376;2022-09-03T05:36:02;15.50;99.90
56374;DHT22;58212;47.034;7.376;2022-09-03T05:38:30;15.60;99.90
56374;DHT22;58212;47.034;7.376;2022-09-03T05:40:58;15.60;99.90
56374;DHT22;58212;47.034;7.376;2022-09-03T05:43:28;15.50;99.90
56374;DHT22;58212;47.034;7.376;2022-09-03T05:45:57;15.70;99.90
56374;DHT22;58212;47.034;7.376;2022-09-03T05:48:25;17.90;99.90
56374;DHT22;58212;47.034;7.376;2022-09-03T05:50:58;19.40;99.90
56374;DHT22;58212;47.034;7.376;2022-09-03T05:53:29;20.10;99.90
56374;DHT22;58212;47.034;7.376;2022-09-03T05:55:57;20.60;99.90
56374;DHT22;58212;47.034;7.376;2022-09-03T05:58:25;21.10;99.90
56374;DHT22;58212;47.034;7.376;2022-09-03T06:00:56;21.30;99.90
56374;DHT22;58212;47.034;7.376;2022-09-03T06:03:25;21.40;99.90
56374;DHT22;58212;47.034;7.376;2022-09-03T06:05:53;21.30;99.90
56374;DHT22;58212;47.034;7.376;2022-09-03T06:08:21;19.90;99.90
56374;DHT22;58212;47.034;7.376;2022-09-03T06:10:50;18.50;99.90
56374;DHT22;58212;47.034;7.376;2022-09-03T06:13:25;17.70;99.90
56374;DHT22;58212;47.034;7.376;2022-09-03T06:15:56;17.40;99.90
56374;DHT22;58212;47.034;7.376;2022-09-03T06:18:23;17.20;99.90
56374;DHT22;58212;47.034;7.376;2022-09-03T06:20:54;17.20;99.90
56374;DHT22;58212;47.034;7.376;2022-09-03T06:23:22;17.10;99.90
56374;DHT22;58212;47.034;7.376;2022-09-03T06:26:01;17.10;99.90
56374;DHT22;58212;47.034;7.376;2022-09-03T06:28:31;17.20;99.90
56374;DHT22;58212;47.034;7.376;2022-09-03T06:30:59;17.40;99.90
56374;DHT22;58212;47.034;7.376;2022-09-03T06:33:27;17.50;99.90
56374;DHT22;58212;47.034;7.376;2022-09-03T06:35:56;17.50;99.90
56374;DHT22;58212;47.034;7.376;2022-09-03T06:38:25;17.60;99.90
56374;DHT22;58212;47.034;7.376;2022-09-03T06:40:53;17.60;99.90
56374;DHT22;58212;47.034;7.376;2022-09-03T06:43:23;17.60;99.90
56374;DHT22;58212;47.034;7.376;2022-09-03T06:45:55;18.80;99.90
56374;DHT22;58212;47.034;7.376;2022-09-03T06:48:23;19.80;99.90
56374;DHT22;58212;47.034;7.376;2022-09-03T06:50:55;22.30;99.90
56374;DHT22;58212;47.034;7.376;2022-09-03T06:53:24;23.20;99.90
56374;DHT22;58212;47.034;7.376;2022-09-03T06:55:53;22.70;99.90
56374;DHT22;58212;47.034;7.376;2022-09-03T06:58:21;23.30;99.90
56374;DHT22;58212;47.034;7.376;2022-09-03T07:00:49;21.30;99.90
56374;DHT22;58212;47.034;7.376;2022-09-03T07:03:19;20.30;99.90
56374;DHT22;58212;47.034;7.376;2022-09-03T07:05:46;19.40;99.90
56374;DHT22;58212;47.034;7.376;2022-09-03T07:08:16;19.20;99.90
56374;DHT22;58212;47.034;7.376;2022-09-03T07:10:45;18.90;99.90
56374;DHT22;58212;47.034;7.376;2022-09-03T07:13:13;18.80;99.90
56374;DHT22;58212;47.034;7.376;2022-09-03T07:15:42;18.90;99.90
56374;DHT22;58212;47.034;7.376;2022-09-03T07:18:11;18.90;99.90
56374;DHT22;58212;47.034;7.376;2022-09-03T07:20:38;18.80;99.90
56374;DHT22;58212;47.034;7.376;2022-09-03T07:23:05;18.70;99.90
56374;DHT22;58212;47.034;7.376;2022-09-03T07:25:33;18.60;99.90
56374;DHT22;58212;47.034;7.376;2022-09-03T07:28:00;18.60;99.90
56374;DHT22;58212;47.034;7.376;2022-09-03T07:30:27;18.60;99.90
56374;DHT22;58212;47.034;7.376;2022-09-03T07:32:56;18.60;99.90
56374;DHT22;58212;47.034;7.376;2022-09-03T07:35:29;18.60;99.90
56374;DHT22;58212;47.034;7.376;2022-09-03T07:37:56;18.60;99.90
56374;DHT22;58212;47.034;7.376;2022-09-03T07:40:25;18.40;99.90
56374;DHT22;58212;47.034;7.376;2022-09-03T07:42:56;18.40;99.90
56374;DHT22;58212;47.034;7.376;2022-09-03T07:45:31;18.10;99.90
56374;DHT22;58212;47.034;7.376;2022-09-03T07:47:59;17.90;99.90
56374;DHT22;58212;47.034;7.376;2022-09-03T07:50:28;17.90;99.90
56374;DHT22;58212;47.034;7.376;2022-09-03T07:53:02;17.90;99.90
56374;DHT22;58212;47.034;7.376;2022-09-03T07:55:30;17.90;99.90
56374;DHT22;58212;47.034;7.376;2022-09-03T07:57:57;17.80;99.90
56374;DHT22;58212;47.034;7.376;2022-09-03T08:00:26;17.70;99.90
56374;DHT22;58212;47.034;7.376;2022-09-03T08:02:55;17.70;99.90
56374;DHT22;58212;47.034;7.376;2022-09-03T08:05:28;17.60;99.90
56374;DHT22;58212;47.034;7.376;2022-09-03T08:07:58;17.60;99.90
56374;DHT22;58212;47.034;7.376;2022-09-03T08:10:26;17.60;99.90
56374;DHT22;58212;47.034;7.376;2022-09-03T08:12:56;17.50;99.90
56374;DHT22;58212;47.034;7.376;2022-09-03T08:15:25;17.50;99.90
56374;DHT22;58212;47.034;7.376;2022-09-03T08:17:52;17.40;99.90
56374;DHT22;58212;47.034;7.376;2022-09-03T08:20:19;17.50;99.90
56374;DHT22;58212;47.034;7.376;2022-09-03T08:22:48;17.30;99.90
56374;DHT22;58212;47.034;7.376;2022-09-03T08:25:18;17.20;99.90
56374;DHT22;58212;47.034;7.376;2022-09-03T08:27:48;17.20;99.90
56374;DHT22;58212;47.034;7.376;2022-09-03T08:30:16;17.20;99.90
56374;DHT22;58212;47.034;7.376;2022-09-03T08:32:44;17.10;99.90
56374;DHT22;58212;47.034;7.376;2022-09-03T08:35:11;17.10;99.90
56374;DHT22;58212;47.034;7.376;2022-09-03T08:37:48;17.20;99.90
56374;DHT22;58212;47.034;7.376;2022-09-03T08:40:19;17.20;99.90
56374;DHT22;58212;47.034;7.376;2022-09-03T08:43:02;17.10;99.90
56374;DHT22;58212;47.034;7.376;2022-09-03T08:45:34;17.10;99.90
56374;DHT22;58212;47.034;7.376;2022-09-03T08:48:06;17.20;99.90
56374;DHT22;58212;47.034;7.376;2022-09-03T08:50:44;17.10;99.90
56374;DHT22;58212;47.034;7.376;2022-09-03T08:53:21;17.10;99.90
56374;DHT22;58212;47.034;7.376;2022-09-03T08:55:54;17.10;99.90
56374;DHT22;58212;47.034;7.376;2022-09-03T08:58:26;17.20;99.90
56374;DHT22;58212;47.034;7.376;2022-09-03T09:00:58;17.10;99.90
56374;DHT22;58212;47.034;7.376;2022-09-03T09:03:40;17.10;99.90
56374;DHT22;58212;47.034;7.376;2022-09-03T09:06:16;17.10;99.90
56374;DHT22;58212;47.034;7.376;2022-09-03T09:08:57;17.20;99.90
56374;DHT22;58212;47.034;7.376;2022-09-03T09:11:36;17.10;99.90
56374;DHT22;58212;47.034;7.376;2022-09-03T09:14:12;17.00;99.90
56374;DHT22;58212;47.034;7.376;2022-09-03T09:16:52;17.00;99.90
56374;DHT22;58212;47.034;7.376;2022-09-03T09:19:35;16.90;99.90
56374;DHT22;58212;47.034;7.376;2022-09-03T09:22:08;16.90;99.90
56374;DHT22;58212;47.034;7.376;2022-09-03T09:24:40;17.00;99.90
56374;DHT22;58212;47.034;7.376;2022-09-03T09:27:13;17.20;99.90
56374;DHT22;58212;47.034;7.376;2022-09-03T09:30:08;17.30;99.90
56374;DHT22;58212;47.034;7.376;2022-09-03T09:32:35;17.30;99.90
56374;DHT22;58212;47.034;7.376;2022-09-03T09:35:07;17.30;99.90
56374;DHT22;58212;47.034;7.376;2022-09-03T09:37:46;17.30;99.90
56374;DHT22;58212;47.034;7.376;2022-09-03T09:40:28;17.40;99.90
56374;DHT22;58212;47.034;7.376;2022-09-03T09:43:05;17.40;99.90
56374;DHT22;58212;47.034;7.376;2022-09-03T09:45:33;17.30;99.90
56374;DHT22;58212;47.034;7.376;2022-09-03T09:48:10;17.60;99.90
56374;DHT22;58212;47.034;7.376;2022-09-03T09:50:40;17.70;99.90
56374;DHT22;58212;47.034;7.376;2022-09-03T09:53:11;17.60;99.90
56374;DHT22;58212;47.034;7.376;2022-09-03T09:56:07;17.70;99.90
56374;DHT22;58212;47.034;7.376;2022-09-03T09:58:36;17.80;99.90
56374;DHT22;58212;47.034;7.376;2022-09-03T10:01:10;17.90;99.90
56374;DHT22;58212;47.034;7.376;2022-09-03T10:03:47;17.90;99.90
56374;DHT22;58212;47.034;7.376;2022-09-03T10:06:15;17.90;99.90
56374;DHT22;58212;47.034;7.376;2022-09-03T10:09:08;17.80;99.90
56374;DHT22;58212;47.034;7.376;2022-09-03T10:11:41;17.80;99.90
56374;DHT22;58212;47.034;7.376;2022-09-03T10:14:19;17.80;99.90
56374;DHT22;58212;47.034;7.376;2022-09-03T10:16:55;17.70;99.90
56374;DHT22;58212;47.034;7.376;2022-09-03T10:19:38;17.90;99.90
56374;DHT22;58212;47.034;7.376;2022-09-03T10:22:11;18.00;99.90
56374;DHT22;58212;47.034;7.376;2022-09-03T10:24:50;18.10;99.90
56374;DHT22;58212;47.034;7.376;2022-09-03T10:27:22;18.10;99.90
56374;DHT22;58212;47.034;7.376;2022-09-03T10:29:51;18.20;99.90
56374;DHT22;58212;47.034;7.376;2022-09-03T10:32:31;18.40;99.90
56374;DHT22;58212;47.034;7.376;2022-09-03T10:35:08;18.50;99.90
56374;DHT22;58212;47.034;7.376;2022-09-03T10:37:40;18.60;99.90
56374;DHT22;58212;47.034;7.376;2022-09-03T10:40:26;18.80;99.90
56374;DHT22;58212;47.034;7.376;2022-09-03T10:43:12;18.90;99.90
56374;DHT22;58212;47.034;7.376;2022-09-03T10:45:54;18.80;99.90
56374;DHT22;58212;47.034;7.376;2022-09-03T10:48:41;18.90;99.90
56374;DHT22;58212;47.034;7.376;2022-09-03T10:51:17;18.90;99.90
56374;DHT22;58212;47.034;7.376;2022-09-03T10:53:59;18.90;99.90
56374;DHT22;58212;47.034;7.376;2022-09-03T10:56:34;18.90;99.90
56374;DHT22;58212;47.034;7.376;2022-09-03T10:59:29;19.00;99.90
56374;DHT22;58212;47.034;7.376;2022-09-03T11:02:15;19.00;99.90
56374;DHT22;58212;47.034;7.376;2022-09-03T11:04:50;19.00;99.90
56374;DHT22;58212;47.034;7.376;2022-09-03T11:07:24;19.00;99.90
56374;DHT22;58212;47.034;7.376;2022-09-03T11:10:00;18.80;99.90
56374;DHT22;58212;47.034;7.376;2022-09-03T11:12:35;18.80;99.90
56374;DHT22;58212;47.034;7.376;2022-09-03T11:15:19;18.60;99.90
56374;DHT22;58212;47.034;7.376;2022-09-03T11:17:51;18.70;99.90
56374;DHT22;58212;47.034;7.376;2022-09-03T11:20:24;18.70;99.90
56374;DHT22;58212;47.034;7.376;2022-09-03T11:22:54;18.80;99.90
56374;DHT22;58212;47.034;7.376;2022-09-03T11:25:27;18.70;99.90
56374;DHT22;58212;47.034;7.376;2022-09-03T11:28:07;18.60;99.90
56374;DHT22;58212;47.034;7.376;2022-09-03T11:30:46;18.70;99.90
56374;DHT22;58212;47.034;7.376;2022-09-03T11:33:19;18.70;99.90
56374;DHT22;58212;47.034;7.376;2022-09-03T11:35:55;18.60;99.90
56374;DHT22;58212;47.034;7.376;2022-09-03T11:38:26;18.60;99.90
56374;DHT22;58212;47.034;7.376;2022-09-03T11:41:10;18.80;99.90
56374;DHT22;58212;47.034;7.376;2022-09-03T11:43:39;19.10;99.90
56374;DHT22;58212;47.034;7.376;2022-09-03T11:46:13;19.20;99.90
56374;DHT22;58212;47.034;7.376;2022-09-03T11:49:09;19.30;99.90
56374;DHT22;58212;47.034;7.376;2022-09-03T11:51:42;19.60;99.90
56374;DHT22;58212;47.034;7.376;2022-09-03T11:54:24;19.20;99.90
56374;DHT22;58212;47.034;7.376;2022-09-03T11:57:06;19.10;99.90
56374;DHT22;58212;47.034;7.376;2022-09-03T11:59:37;19.30;99.90
56374;DHT22;58212;47.034;7.376;2022-09-03T12:02:18;19.20;99.90
56374;DHT22;58212;47.034;7.376;2022-09-03T12:04:54;19.20;99.90
56374;DHT22;58212;47.034;7.376;2022-09-03T12:07:40;19.30;99.90
56374;DHT22;58212;47.034;7.376;2022-09-03T12:10:33;19.40;99.90
56374;DHT22;58212;47.034;7.376;2022-09-03T12:13:19;19.50;99.90
56374;DHT22;58212;47.034;7.376;2022-09-03T12:16:05;20.00;99.90
56374;DHT22;58212;47.034;7.376;2022-09-03T12:18:45;19.80;99.90
56374;DHT22;58212;47.034;7.376;2022-09-03T12:21:18;19.70;99.90
56374;DHT22;58212;47.034;7.376;2022-09-03T12:23:49;19.50;99.90
56374;DHT22;58212;47.034;7.376;2022-09-03T12:26:23;19.60;99.90
56374;DHT22;58212;47.034;7.376;2022-09-03T12:28:54;19.50;99.90
56374;DHT22;58212;47.034;7.376;2022-09-03T12:31:23;19.50;99.90
56374;DHT22;58212;47.034;7.376;2022-09-03T12:33:57;19.30;99.90
56374;DHT22;58212;47.034;7.376;2022-09-03T12:36:36;19.30;99.90
56374;DHT22;58212;47.034;7.376;2022-09-03T12:39:07;19.40;99.90
56374;DHT22;58212;47.034;7.376;2022-09-03T12:41:38;19.50;99.90
56374;DHT22;58212;47.034;7.376;2022-09-03T12:44:05;19.40;99.90
56374;DHT22;58212;47.034;7.376;2022-09-03T12:46:33;19.40;99.90
56374;DHT22;58212;47.034;7.376;2022-09-03T12:49:03;19.40;99.90
56374;DHT22;58212;47.034;7.376;2022-09-03T12:51:45;19.60;99.90
56374;DHT22;58212;47.034;7.376;2022-09-03T12:54:13;19.90;99.90
56374;DHT22;58212;47.034;7.376;2022-09-03T12:56:57;19.90;99.90
56374;DHT22;58212;47.034;7.376;2022-09-03T12:59:33;19.90;99.90
56374;DHT22;58212;47.034;7.376;2022-09-03T13:02:13;19.90;99.90
56374;DHT22;58212;47.034;7.376;2022-09-03T13:04:45;19.90;99.90
56374;DHT22;58212;47.034;7.376;2022-09-03T13:07:23;20.30;99.90
56374;DHT22;58212;47.034;7.376;2022-09-03T13:10:00;20.30;99.90
56374;DHT22;58212;47.034;7.376;2022-09-03T13:12:40;20.70;99.90
56374;DHT22;58212;47.034;7.376;2022-09-03T13:15:17;21.20;99.90
56374;DHT22;58212;47.034;7.376;2022-09-03T13:18:19;20.80;99.90
56374;DHT22;58212;47.034;7.376;2022-09-03T13:21:06;20.70;99.90
56374;DHT22;58212;47.034;7.376;2022-09-03T13:23:55;20.40;99.90
56374;DHT22;58212;47.034;7.376;2022-09-03T13:26:35;20.30;99.90
56374;DHT22;58212;47.034;7.376;2022-09-03T13:32:12;21.00;99.90
56374;DHT22;58212;47.034;7.376;2022-09-03T13:34:53;21.00;99.90
56374;DHT22;58212;47.034;7.376;2022-09-03T13:37:26;20.90;99.90
56374;DHT22;58212;47.034;7.376;2022-09-03T13:39:57;20.70;99.90
56374;DHT22;58212;47.034;7.376;2022-09-03T13:42:31;20.70;99.90
56374;DHT22;58212;47.034;7.376;2022-09-03T13:45:08;21.00;99.90
56374;DHT22;58212;47.034;7.376;2022-09-03T13:47:43;21.00;99.90
56374;DHT22;58212;47.034;7.376;2022-09-03T13:50:40;21.20;99.90
56374;DHT22;58212;47.034;7.376;2022-09-03T13:53:16;21.30;99.90
56374;DHT22;58212;47.034;7.376;2022-09-03T13:55:47;21.60;99.90
56374;DHT22;58212;47.034;7.376;2022-09-03T13:58:24;21.80;99.90
56374;DHT22;58212;47.034;7.376;2022-09-03T14:01:05;21.60;99.90
56374;DHT22;58212;47.034;7.376;2022-09-03T14:03:42;21.40;99.90
56374;DHT22;58212;47.034;7.376;2022-09-03T14:06:19;21.40;99.90
56374;DHT22;58212;47.034;7.376;2022-09-03T14:09:05;21.30;99.90
56374;DHT22;58212;47.034;7.376;2022-09-03T14:11:47;21.60;99.90
56374;DHT22;58212;47.034;7.376;2022-09-03T14:14:23;22.00;99.90
56374;DHT22;58212;47.034;7.376;2022-09-03T14:17:03;22.10;99.90
56374;DHT22;58212;47.034;7.376;2022-09-03T14:19:51;22.10;99.90
56374;DHT22;58212;47.034;7.376;2022-09-03T14:22:23;22.10;99.90
56374;DHT22;58212;47.034;7.376;2022-09-03T14:24:55;21.90;99.90
56374;DHT22;58212;47.034;7.376;2022-09-03T14:27:26;22.40;99.90
56374;DHT22;58212;47.034;7.376;2022-09-03T14:29:58;22.30;99.90
56374;DHT22;58212;47.034;7.376;2022-09-03T14:32:36;22.40;99.90
56374;DHT22;58212;47.034;7.376;2022-09-03T14:35:31;22.40;99.90
56374;DHT22;58212;47.034;7.376;2022-09-03T14:38:35;22.10;99.90
56374;DHT22;58212;47.034;7.376;2022-09-03T14:41:21;22.20;99.90
56374;DHT22;58212;47.034;7.376;2022-09-03T14:44:05;22.30;99.90
56374;DHT22;58212;47.034;7.376;2022-09-03T14:46:45;22.40;99.90
56374;DHT22;58212;47.034;7.376;2022-09-03T14:52:22;22.00;99.90
56374;DHT22;58212;47.034;7.376;2022-09-03T14:55:15;22.30;99.90
56374;DHT22;58212;47.034;7.376;2022-09-03T14:58:10;22.30;99.90
56374;DHT22;58212;47.034;7.376;2022-09-03T15:00:49;22.00;99.90
56374;DHT22;58212;47.034;7.376;2022-09-03T15:03:39;22.20;99.90
56374;DHT22;58212;47.034;7.376;2022-09-03T15:06:19;22.40;99.90
56374;DHT22;58212;47.034;7.376;2022-09-03T15:09:10;22.30;99.90
56374;DHT22;58212;47.034;7.376;2022-09-03T15:11:48;22.10;99.90
56374;DHT22;58212;47.034;7.376;2022-09-03T15:14:23;21.80;99.90
56374;DHT22;58212;47.034;7.376;2022-09-03T15:16:58;21.70;99.90
56374;DHT22;58212;47.034;7.376;2022-09-03T15:19:43;21.60;99.90
56374;DHT22;58212;47.034;7.376;2022-09-03T15:22:21;21.50;99.90
56374;DHT22;58212;47.034;7.376;2022-09-03T15:24:57;21.50;99.90
56374;DHT22;58212;47.034;7.376;2022-09-03T15:27:59;21.50;99.90
56374;DHT22;58212;47.034;7.376;2022-09-03T15:30:38;21.50;99.90
56374;DHT22;58212;47.034;7.376;2022-09-03T15:33:21;21.40;99.90
56374;DHT22;58212;47.034;7.376;2022-09-03T15:36:16;21.50;99.90
56374;DHT22;58212;47.034;7.376;2022-09-03T15:38:49;21.40;99.90
56374;DHT22;58212;47.034;7.376;2022-09-03T15:41:36;21.30;99.90
56374;DHT22;58212;47.034;7.376;2022-09-03T15:44:10;21.30;99.90
56374;DHT22;58212;47.034;7.376;2022-09-03T15:46:51;21.20;99.90
56374;DHT22;58212;47.034;7.376;2022-09-03T15:49:34;21.10;99.90
56374;DHT22;58212;47.034;7.376;2022-09-03T15:52:08;21.00;99.90
56374;DHT22;58212;47.034;7.376;2022-09-03T15:54:42;20.90;99.90
56374;DHT22;58212;47.034;7.376;2022-09-03T15:57:15;21.00;99.90
56374;DHT22;58212;47.034;7.376;2022-09-03T15:59:53;20.90;99.90
56374;DHT22;58212;47.034;7.376;2022-09-03T16:02:29;20.80;99.90
56374;DHT22;58212;47.034;7.376;2022-09-03T16:05:06;20.80;99.90
56374;DHT22;58212;47.034;7.376;2022-09-03T16:07:47;20.70;99.90
56374;DHT22;58212;47.034;7.376;2022-09-03T16:10:17;20.60;99.90
56374;DHT22;58212;47.034;7.376;2022-09-03T16:12:56;20.50;99.90
56374;DHT22;58212;47.034;7.376;2022-09-03T16:15:28;20.40;99.90
56374;DHT22;58212;47.034;7.376;2022-09-03T16:18:02;20.40;99.90
56374;DHT22;58212;47.034;7.376;2022-09-03T16:20:37;20.30;99.90
56374;DHT22;58212;47.034;7.376;2022-09-03T16:23:11;20.40;99.90